createdAt,value
2019-06-27T00:00:18.967Z,99245.63
2019-06-27T00:02:52.587Z,99242.30
2019-06-27T00:05:25.853Z,99244.30
2019-06-27T00:07:59.482Z,99248.11
2019-06-27T00:10:34.438Z,99252.59
2019-06-27T00:13:08.642Z,99247.63
2019-06-27T00:15:41.601Z,99251.27
2019-06-27T00:18:15.055Z,99243.61
2019-06-27T00:20:48.560Z,99245.61
2019-06-27T00:23:46.004Z,99250.72
2019-06-27T00:26:20.351Z,99246.73
2019-06-27T00:28:54.571Z,99248.40
2019-06-27T00:31:28.318Z,99250.89
2019-06-27T00:34:01.925Z,99248.55
2019-06-27T00:36:35.182Z,99252.88
2019-06-27T00:39:08.600Z,99253.17
2019-06-27T00:41:42.165Z,99255.16
2019-06-27T00:44:16.185Z,99255.99
2019-06-27T00:46:50.633Z,99246.69
2019-06-27T00:49:23.937Z,99249.16
2019-06-27T00:51:56.953Z,99251.12
2019-06-27T00:54:29.871Z,99247.61
2019-06-27T00:57:13.417Z,99243.08
2019-06-27T00:59:38.676Z,99245.25
2019-06-27T01:02:12.353Z,99238.78
2019-06-27T01:04:45.743Z,99241.20
2019-06-27T01:07:19.423Z,99241.55
2019-06-27T01:09:52.976Z,99240.03
2019-06-27T01:12:26.493Z,99242.14
2019-06-27T01:15:00.024Z,99248.44
2019-06-27T01:17:34.422Z,99250.91
2019-06-27T01:20:08.668Z,99252.23
2019-06-27T01:22:41.947Z,99250.54
2019-06-27T01:25:14.944Z,99248.23
2019-06-27T01:27:48.508Z,99244.07
2019-06-27T01:30:22.549Z,99247.87
2019-06-27T01:32:56.260Z,99250.02
2019-06-27T01:35:29.507Z,99245.17
2019-06-27T01:38:02.514Z,99246.83
2019-06-27T01:40:35.856Z,99243.83
2019-06-27T01:43:08.807Z,99245.16
2019-06-27T01:45:48.101Z,99245.95
2019-06-27T01:48:21.082Z,99250.18
2019-06-27T01:50:54.519Z,99245.98
2019-06-27T01:53:27.909Z,99242.36
2019-06-27T01:56:01.675Z,99243.38
2019-06-27T01:58:34.660Z,99246.25
2019-06-27T02:01:08.808Z,99241.38
2019-06-27T02:03:42.094Z,99238.38
2019-06-27T02:06:15.695Z,99241.33
2019-06-27T02:08:49.342Z,99241.00
2019-06-27T02:11:30.081Z,99245.48
2019-06-27T02:14:03.958Z,99244.83
2019-06-27T02:16:37.652Z,99251.25
2019-06-27T02:19:10.629Z,99252.34
2019-06-27T02:21:45.760Z,99243.33
2019-06-27T02:24:19.245Z,99247.26
2019-06-27T02:26:53.524Z,99247.30
2019-06-27T02:29:26.588Z,99250.34
2019-06-27T02:32:00.080Z,99250.58
2019-06-27T02:34:33.884Z,99248.64
2019-06-27T02:37:07.127Z,99253.78
2019-06-27T02:39:40.691Z,99258.56
2019-06-27T02:42:17.558Z,99257.20
2019-06-27T02:44:51.343Z,99259.30
2019-06-27T02:47:24.779Z,99254.95
2019-06-27T02:49:58.401Z,99261.87
2019-06-27T02:52:32.070Z,99263.16
2019-06-27T02:55:05.465Z,99262.27
2019-06-27T02:57:38.513Z,99259.42
2019-06-27T03:00:12.880Z,99263.67
2019-06-27T03:02:46.302Z,99260.83
2019-06-27T03:05:20.790Z,99259.02
2019-06-27T03:07:54.707Z,99257.20
2019-06-27T03:10:28.179Z,99257.05
2019-06-27T03:13:01.252Z,99255.41
2019-06-27T03:15:34.385Z,99257.42
2019-06-27T03:18:08.093Z,99263.19
2019-06-27T03:20:41.760Z,99265.08
2019-06-27T03:23:15.160Z,99270.13
2019-06-27T03:25:48.551Z,99268.41
2019-06-27T03:28:22.000Z,99270.65
2019-06-27T03:30:54.950Z,99272.56
2019-06-27T03:33:28.588Z,99272.83
2019-06-27T03:36:02.217Z,99273.05
2019-06-27T03:38:35.541Z,99277.92
2019-06-27T03:41:09.347Z,99277.25
2019-06-27T03:43:42.161Z,99273.92
2019-06-27T03:46:15.846Z,99273.28
2019-06-27T03:48:48.741Z,99281.96
2019-06-27T03:51:21.606Z,99277.52
2019-06-27T03:53:54.807Z,99283.48
2019-06-27T03:56:28.073Z,99278.78
2019-06-27T03:59:12.058Z,99280.44
2019-06-27T04:01:37.609Z,99276.52
2019-06-27T04:04:11.042Z,99278.61
2019-06-27T04:06:44.779Z,99274.64
2019-06-27T04:09:19.147Z,99272.32
2019-06-27T04:11:53.813Z,99275.40
2019-06-27T04:14:30.473Z,99279.16
2019-06-27T04:17:04.090Z,99280.64
2019-06-27T04:19:36.905Z,99277.61
2019-06-27T04:22:10.278Z,99277.16
2019-06-27T04:24:43.775Z,99284.38
2019-06-27T04:27:17.366Z,99279.14
2019-06-27T04:29:50.547Z,99284.33
2019-06-27T04:32:23.926Z,99281.25
2019-06-27T04:34:57.773Z,99279.06
2019-06-27T04:37:31.038Z,99282.05
2019-06-27T04:40:04.615Z,99283.13
2019-06-27T04:42:38.211Z,99287.07
2019-06-27T04:45:13.520Z,99283.38
2019-06-27T04:47:47.205Z,99280.94
2019-06-27T04:50:22.634Z,99285.83
2019-06-27T04:52:56.193Z,99280.12
2019-06-27T04:55:29.762Z,99276.58
2019-06-27T04:58:03.397Z,99276.13
2019-06-27T05:00:38.584Z,99277.29
2019-06-27T05:03:11.940Z,99277.22
2019-06-27T05:05:45.874Z,99272.76
2019-06-27T05:08:21.788Z,99279.53
2019-06-27T05:10:55.162Z,99277.00
2019-06-27T05:13:29.682Z,99276.41
2019-06-27T05:16:03.252Z,99283.83
2019-06-27T05:18:36.720Z,99276.27
2019-06-27T05:21:10.333Z,99277.70
2019-06-27T05:23:44.424Z,99278.05
2019-06-27T05:26:18.333Z,99270.99
2019-06-27T05:28:52.114Z,99272.83
2019-06-27T05:31:25.975Z,99272.55
2019-06-27T05:33:59.463Z,99277.20
2019-06-27T05:36:33.411Z,99272.53
2019-06-27T05:39:07.610Z,99269.88
2019-06-27T05:41:41.215Z,99271.84
2019-06-27T05:44:15.195Z,99270.98
2019-06-27T05:46:49.016Z,99270.44
2019-06-27T05:49:22.550Z,99271.19
2019-06-27T05:51:56.073Z,99280.58
2019-06-27T05:54:29.968Z,99273.17
2019-06-27T05:57:03.928Z,99273.50
2019-06-27T05:59:38.053Z,99272.19
2019-06-27T06:02:14.754Z,99272.36
2019-06-27T06:04:50.166Z,99275.81
2019-06-27T06:07:24.517Z,99273.31
2019-06-27T06:10:02.110Z,99272.28
2019-06-27T06:12:35.301Z,99276.95
2019-06-27T06:15:08.920Z,99274.39
2019-06-27T06:17:42.432Z,99273.42
2019-06-27T06:20:16.247Z,99275.92
2019-06-27T06:22:50.901Z,99269.97
2019-06-27T06:25:25.119Z,99271.67
2019-06-27T06:27:58.538Z,99277.08
2019-06-27T06:30:44.367Z,99269.36
2019-06-27T06:33:11.657Z,99268.08
2019-06-27T06:35:46.386Z,99266.73
2019-06-27T06:38:21.724Z,99267.48
2019-06-27T06:40:56.271Z,99264.58
2019-06-27T06:43:31.118Z,99271.73
2019-06-27T06:46:07.386Z,99267.27
2019-06-27T06:48:41.472Z,99260.33
2019-06-27T06:51:16.264Z,99261.27
2019-06-27T06:53:50.001Z,99264.80
2019-06-27T06:56:23.521Z,99263.72
2019-06-27T06:58:57.567Z,99262.75
2019-06-27T07:01:31.619Z,99260.88
2019-06-27T07:04:05.425Z,99262.19
2019-06-27T07:06:39.480Z,99255.91
2019-06-27T07:09:13.077Z,99264.30
2019-06-27T07:11:49.953Z,99264.75
2019-06-27T07:14:27.227Z,99266.30
2019-06-27T07:17:03.140Z,99259.84
2019-06-27T07:19:37.845Z,99261.58
2019-06-27T07:22:14.467Z,99259.42
2019-06-27T07:24:49.874Z,99263.72
2019-06-27T07:27:24.461Z,99259.72
2019-06-27T07:29:59.358Z,99260.22
2019-06-27T07:32:33.010Z,99262.59
2019-06-27T07:35:06.989Z,99261.07
2019-06-27T07:37:41.423Z,99253.17
2019-06-27T07:40:17.086Z,99254.27
2019-06-27T07:42:51.117Z,99251.52
2019-06-27T07:45:25.037Z,99247.20
2019-06-27T07:47:59.474Z,99249.66
2019-06-27T07:50:33.728Z,99250.47
2019-06-27T07:53:09.735Z,99248.00
2019-06-27T07:55:43.566Z,99244.95
2019-06-27T07:58:17.402Z,99239.73
2019-06-27T08:00:51.776Z,99239.73
2019-06-27T08:03:25.280Z,99239.13
2019-06-27T08:05:59.421Z,99234.56
2019-06-27T08:08:33.522Z,99232.03
2019-06-27T08:11:07.448Z,99230.33
2019-06-27T08:13:41.228Z,99228.25
2019-06-27T08:16:15.115Z,99229.16
2019-06-27T08:18:48.472Z,99225.66
2019-06-27T08:21:22.882Z,99223.56
2019-06-27T08:23:56.514Z,99224.23
2019-06-27T08:26:30.349Z,99223.70
2019-06-27T08:29:08.421Z,99226.16
2019-06-27T08:31:51.321Z,99220.53
2019-06-27T08:34:21.253Z,99219.95
2019-06-27T08:36:55.086Z,99219.51
2019-06-27T08:39:28.395Z,99219.88
2019-06-27T08:42:02.046Z,99216.23
2019-06-27T08:44:35.965Z,99220.80
2019-06-27T08:47:09.756Z,99212.77
2019-06-27T08:49:45.255Z,99218.64
2019-06-27T08:52:19.542Z,99213.09
2019-06-27T08:54:53.246Z,99210.30
2019-06-27T08:57:26.471Z,99208.46
2019-06-27T09:00:00.079Z,99209.74
2019-06-27T09:02:33.394Z,99204.08
2019-06-27T09:05:06.738Z,99203.71
2019-06-27T09:07:43.933Z,99202.09
2019-06-27T09:10:20.974Z,99196.77
2019-06-27T09:12:54.715Z,99197.91
2019-06-27T09:15:29.230Z,99197.84
2019-06-27T09:18:02.784Z,99198.89
2019-06-27T09:20:36.275Z,99202.51
2019-06-27T09:23:12.914Z,99200.41
2019-06-27T09:25:46.693Z,99199.91
2019-06-27T09:28:22.022Z,99198.53
2019-06-27T09:30:56.448Z,99195.69
2019-06-27T09:33:30.587Z,99195.36
2019-06-27T09:36:06.301Z,99194.05
2019-06-27T09:38:40.348Z,99190.05
2019-06-27T09:41:14.617Z,99193.86
2019-06-27T09:43:49.031Z,99181.39
2019-06-27T09:46:23.621Z,99191.88
2019-06-27T09:48:59.181Z,99188.98
2019-06-27T09:51:34.006Z,99188.80
2019-06-27T09:54:07.566Z,99183.50
2019-06-27T09:56:41.523Z,99185.14
2019-06-27T09:59:15.826Z,99183.84
2019-06-27T10:01:49.062Z,99183.34
2019-06-27T10:04:24.910Z,99188.09
2019-06-27T10:06:59.106Z,99177.72
2019-06-27T10:09:33.224Z,99183.01
2019-06-27T10:12:06.865Z,99175.77
2019-06-27T10:14:41.209Z,99172.88
2019-06-27T10:17:18.952Z,99168.68
2019-06-27T10:19:52.815Z,99165.47
2019-06-27T10:22:26.534Z,99157.71
2019-06-27T10:24:59.839Z,99162.50
2019-06-27T10:27:35.000Z,99156.70
2019-06-27T10:30:09.701Z,99155.05
2019-06-27T10:32:57.832Z,99153.33
2019-06-27T10:35:18.809Z,99150.40
2019-06-27T10:37:53.209Z,99145.54
2019-06-27T10:40:28.031Z,99137.86
2019-06-27T10:43:01.687Z,99147.75
2019-06-27T10:45:35.339Z,99140.80
2019-06-27T10:48:09.493Z,99134.66
2019-06-27T10:50:46.270Z,99132.91
2019-06-27T10:53:19.379Z,99130.13
2019-06-27T10:55:53.611Z,99131.96
2019-06-27T10:58:27.821Z,99123.00
2019-06-27T11:01:01.204Z,99113.37
2019-06-27T11:03:38.191Z,99115.77
2019-06-27T11:06:16.716Z,99107.55
2019-06-27T11:08:50.180Z,99104.91
2019-06-27T11:11:28.254Z,99102.77
2019-06-27T11:14:01.545Z,99099.08
2019-06-27T11:16:35.206Z,99100.70
2019-06-27T11:19:08.526Z,99096.83
2019-06-27T11:21:42.132Z,99092.76
2019-06-27T11:24:15.408Z,99082.81
2019-06-27T11:26:50.219Z,99077.14
2019-06-27T11:29:24.767Z,99069.72
2019-06-27T11:31:58.285Z,99067.88
2019-06-27T11:34:35.011Z,99073.39
2019-06-27T11:37:08.744Z,99062.77
2019-06-27T11:39:42.172Z,99056.25
2019-06-27T11:42:16.634Z,99058.84
2019-06-27T11:44:50.921Z,99050.12
2019-06-27T11:47:25.375Z,99053.22
2019-06-27T11:49:59.022Z,99053.42
2019-06-27T11:52:34.110Z,99048.17
2019-06-27T11:55:08.479Z,99035.96
2019-06-27T11:57:42.956Z,99043.84
2019-06-27T12:00:21.600Z,99034.84
2019-06-27T12:02:57.369Z,99026.86
2019-06-27T12:05:33.693Z,99022.78
2019-06-27T12:08:26.603Z,99027.23
2019-06-27T12:11:11.053Z,99024.47
2019-06-27T12:13:47.798Z,99011.80
2019-06-27T12:16:25.587Z,99012.37
2019-06-27T12:19:01.506Z,99007.34
2019-06-27T12:21:37.113Z,99009.20
2019-06-27T12:24:11.434Z,98998.83
2019-06-27T12:26:49.582Z,98993.92
2019-06-27T12:29:23.502Z,98994.81
2019-06-27T12:31:57.311Z,98986.28
2019-06-27T12:34:30.940Z,98979.34
2019-06-27T12:37:04.529Z,98977.72
2019-06-27T12:39:38.368Z,98981.63
2019-06-27T12:42:28.370Z,98978.52
2019-06-27T12:44:50.289Z,98973.34
2019-06-27T12:47:24.243Z,98981.13
2019-06-27T12:50:02.645Z,98971.16
2019-06-27T12:52:35.178Z,98967.73
2019-06-27T12:55:10.394Z,98961.33
2019-06-27T12:57:44.720Z,98961.17
2019-06-27T13:00:18.620Z,98956.73
2019-06-27T13:02:52.525Z,98959.89
2019-06-27T13:05:28.093Z,98954.36
2019-06-27T13:08:02.271Z,98949.42
2019-06-27T13:10:45.307Z,98950.18
2019-06-27T13:13:19.344Z,98951.63
2019-06-27T13:15:59.600Z,98948.66
2019-06-27T13:18:33.196Z,98943.67
2019-06-27T13:21:06.972Z,98941.31
2019-06-27T13:23:41.668Z,98938.14
2019-06-27T13:26:15.553Z,98933.45
2019-06-27T13:28:59.150Z,98930.29
2019-06-27T13:31:32.911Z,98921.72
2019-06-27T13:34:06.780Z,98921.61
2019-06-27T13:36:40.870Z,98917.73
2019-06-27T13:39:15.743Z,98911.48
2019-06-27T13:41:51.163Z,98913.92
2019-06-27T13:44:24.968Z,98902.98
2019-06-27T13:47:03.918Z,98907.84
2019-06-27T13:49:37.503Z,98900.77
2019-06-27T13:52:12.102Z,98896.89
2019-06-27T13:54:46.234Z,98898.18
2019-06-27T13:57:21.934Z,98889.28
2019-06-27T13:59:57.891Z,98885.30
2019-06-27T14:02:33.069Z,98885.30
2019-06-27T14:05:07.551Z,98882.66
2019-06-27T14:07:42.078Z,98878.05
2019-06-27T14:10:26.653Z,98876.59
2019-06-27T14:13:01.683Z,98869.41
2019-06-27T14:15:37.872Z,98869.72
2019-06-27T14:18:12.633Z,98873.57
2019-06-27T14:20:46.029Z,98862.17
2019-06-27T14:23:25.211Z,98856.90
2019-06-27T14:25:59.533Z,98852.91
2019-06-27T14:28:34.022Z,98848.52
2019-06-27T14:31:09.029Z,98849.20
2019-06-27T14:33:43.584Z,98849.69
2019-06-27T14:36:18.404Z,98844.27
2019-06-27T14:38:52.579Z,98846.81
2019-06-27T14:41:27.984Z,98839.45
2019-06-27T14:44:03.641Z,98830.14
2019-06-27T14:46:39.544Z,98834.13
2019-06-27T14:49:13.904Z,98825.52
2019-06-27T14:51:48.995Z,98823.27
2019-06-27T14:54:23.204Z,98820.61
2019-06-27T14:56:59.228Z,98824.34
2019-06-27T14:59:34.154Z,98816.28
2019-06-27T15:02:08.541Z,98815.45
2019-06-27T15:04:45.075Z,98809.49
2019-06-27T15:07:22.132Z,98808.14
2019-06-27T15:09:57.255Z,98805.58
2019-06-27T15:12:35.515Z,98805.14
2019-06-27T15:15:12.952Z,98802.70
2019-06-27T15:17:47.874Z,98796.21
2019-06-27T15:20:22.206Z,98796.22
2019-06-27T15:22:59.011Z,98790.28
2019-06-27T15:25:33.681Z,98787.61
2019-06-27T15:28:07.671Z,98788.41
2019-06-27T15:30:41.678Z,98785.67
2019-06-27T15:33:18.488Z,98774.89
2019-06-27T15:35:53.176Z,98773.47
2019-06-27T15:38:27.358Z,98768.44
2019-06-27T15:41:01.178Z,98771.69
2019-06-27T15:43:35.234Z,98756.45
2019-06-27T15:46:09.060Z,98755.83
2019-06-27T15:48:45.012Z,98757.66
2019-06-27T15:51:19.076Z,98754.14
2019-06-27T15:53:53.025Z,98753.72
2019-06-27T15:56:27.124Z,98746.56
2019-06-27T15:59:03.578Z,98748.92
2019-06-27T16:01:36.523Z,98748.98
2019-06-27T16:04:24.460Z,98743.64
2019-06-27T16:06:46.387Z,98744.14
2019-06-27T16:09:20.681Z,98737.99
2019-06-27T16:11:54.986Z,98728.48
2019-06-27T16:14:29.323Z,98727.02
2019-06-27T16:17:04.179Z,98731.03
2019-06-27T16:19:38.134Z,98729.02
2019-06-27T16:22:12.572Z,98721.39
2019-06-27T16:24:45.956Z,98720.19
2019-06-27T16:27:19.667Z,98712.73
2019-06-27T16:29:53.956Z,98714.16
2019-06-27T16:32:27.563Z,98715.69
2019-06-27T16:35:03.213Z,98720.36
2019-06-27T16:37:37.684Z,98717.20
2019-06-27T16:40:12.803Z,98720.33
2019-06-27T16:42:47.381Z,98718.27
2019-06-27T16:45:21.255Z,98717.02
2019-06-27T16:47:55.859Z,98723.36
2019-06-27T16:50:29.636Z,98715.14
2019-06-27T16:53:03.946Z,98712.19
2019-06-27T16:55:37.869Z,98713.95
2019-06-27T16:58:13.683Z,98711.86
2019-06-27T17:00:48.386Z,98713.05
2019-06-27T17:03:25.147Z,98714.20
2019-06-27T17:05:59.242Z,98712.87
2019-06-27T17:08:34.532Z,98713.48
2019-06-27T17:11:09.167Z,98704.55
2019-06-27T17:13:45.632Z,98704.41
2019-06-27T17:16:22.249Z,98706.16
2019-06-27T17:18:55.815Z,98705.16
2019-06-27T17:21:30.986Z,98704.49
2019-06-27T17:24:09.350Z,98707.91
2019-06-27T17:26:43.943Z,98707.45
2019-06-27T17:29:21.379Z,98701.58
2019-06-27T17:31:56.608Z,98702.21
2019-06-27T17:34:33.019Z,98704.72
2019-06-27T17:37:08.770Z,98691.92
2019-06-27T17:39:47.149Z,98702.72
2019-06-27T17:42:23.022Z,98700.53
2019-06-27T17:44:58.669Z,98700.69
2019-06-27T17:47:33.512Z,98698.22
2019-06-27T17:50:11.637Z,98696.88
2019-06-27T17:52:47.892Z,98695.52
2019-06-27T17:55:25.616Z,98695.23
2019-06-27T17:58:01.596Z,98687.86
2019-06-27T18:00:39.039Z,98688.44
2019-06-27T18:03:15.095Z,98688.38
2019-06-27T18:05:48.836Z,98690.51
2019-06-27T18:08:23.419Z,98689.73
2019-06-27T18:10:58.392Z,98691.48
2019-06-27T18:13:32.671Z,98690.72
2019-06-27T18:16:07.016Z,98693.69
2019-06-27T18:18:42.038Z,98691.52
2019-06-27T18:21:16.117Z,98691.95
2019-06-27T18:23:50.699Z,98694.00
2019-06-27T18:26:25.658Z,98698.29
2019-06-27T18:29:00.611Z,98691.05
2019-06-27T18:31:35.253Z,98695.52
2019-06-27T18:34:11.109Z,98691.69
2019-06-27T18:36:45.081Z,98691.53
2019-06-27T18:39:20.315Z,98693.97
2019-06-27T18:41:54.653Z,98688.84
2019-06-27T18:44:30.566Z,98692.63
2019-06-27T18:47:04.682Z,98698.13
2019-06-27T18:49:41.085Z,98693.31
2019-06-27T18:52:15.021Z,98700.91
2019-06-27T18:54:54.331Z,98714.70
2019-06-27T18:57:30.887Z,98712.31
2019-06-27T19:00:06.392Z,98716.70
2019-06-27T19:02:42.046Z,98716.45
2019-06-27T19:05:20.742Z,98715.66
2019-06-27T19:07:55.128Z,98723.94
2019-06-27T19:10:29.717Z,98724.72
2019-06-27T19:13:11.485Z,98716.09
2019-06-27T19:15:46.537Z,98724.87
2019-06-27T19:18:38.001Z,98719.48
2019-06-27T19:21:16.579Z,98722.27
2019-06-27T19:24:05.351Z,98728.59
2019-06-27T19:26:39.148Z,98731.58
2019-06-27T19:29:13.105Z,98730.12
2019-06-27T19:31:51.137Z,98728.38
2019-06-27T19:34:25.315Z,98731.88
2019-06-27T19:37:02.964Z,98735.19
2019-06-27T19:39:37.634Z,98742.59
2019-06-27T19:42:14.944Z,98741.75
2019-06-27T19:44:50.391Z,98744.91
2019-06-27T19:47:27.274Z,98752.89
2019-06-27T19:50:01.453Z,98758.94
2019-06-27T19:52:38.424Z,98760.74
2019-06-27T19:55:14.068Z,98767.15
2019-06-27T19:57:49.104Z,98762.98
2019-06-27T20:00:24.919Z,98766.91
2019-06-27T20:02:59.629Z,98771.94
2019-06-27T20:05:35.554Z,98775.02
2019-06-27T20:08:19.300Z,98774.14
2019-06-27T20:10:48.908Z,98773.11
2019-06-27T20:13:26.001Z,98776.49
2019-06-27T20:16:01.191Z,98778.89
2019-06-27T20:18:39.234Z,98776.58
2019-06-27T20:21:22.102Z,98771.89
2019-06-27T20:23:58.615Z,98769.84
2019-06-27T20:26:33.895Z,98770.20
2019-06-27T20:29:09.273Z,98769.63
2019-06-27T20:31:44.962Z,98770.59
2019-06-27T20:34:18.728Z,98765.28
2019-06-27T20:37:02.231Z,98765.66
2019-06-27T20:39:39.411Z,98776.44
2019-06-27T20:42:16.340Z,98771.83
2019-06-27T20:44:52.111Z,98778.97
2019-06-27T20:47:28.416Z,98773.72
2019-06-27T20:50:03.062Z,98777.24
2019-06-27T20:52:38.068Z,98789.09
2019-06-27T20:55:12.578Z,98782.52
2019-06-27T20:57:47.616Z,98780.92
2019-06-27T21:00:22.546Z,98780.02
2019-06-27T21:02:56.538Z,98774.34
2019-06-27T21:05:31.435Z,98778.47
2019-06-27T21:08:09.301Z,98778.30
2019-06-27T21:10:44.433Z,98785.17
2019-06-27T21:13:20.271Z,98783.33
2019-06-27T21:15:54.694Z,98780.69
2019-06-27T21:18:31.240Z,98778.41
2019-06-27T21:21:08.021Z,98780.47
2019-06-27T21:23:46.312Z,98784.88
2019-06-27T21:26:20.536Z,98779.73
2019-06-27T21:28:57.213Z,98784.59
2019-06-27T21:31:37.756Z,98770.89
2019-06-27T21:34:15.450Z,98768.83
2019-06-27T21:36:50.057Z,98773.03
2019-06-27T21:39:25.094Z,98776.21
2019-06-27T21:42:00.354Z,98771.35
2019-06-27T21:44:36.921Z,98768.16
2019-06-27T21:47:12.456Z,98767.02
2019-06-27T21:49:49.149Z,98761.25
2019-06-27T21:52:23.236Z,98767.08
2019-06-27T21:54:57.304Z,98767.90
2019-06-27T21:57:31.295Z,98761.81
2019-06-27T22:00:05.479Z,98762.73
2019-06-27T22:02:40.734Z,98763.24
2019-06-27T22:05:16.523Z,98761.59
2019-06-27T22:07:53.446Z,98766.94
2019-06-27T22:10:26.160Z,98766.77
2019-06-27T22:12:59.848Z,98768.16
2019-06-27T22:15:33.374Z,98758.89
2019-06-27T22:18:07.693Z,98758.53
2019-06-27T22:20:41.934Z,98753.36
2019-06-27T22:23:18.743Z,98758.37
2019-06-27T22:25:53.104Z,98749.98
2019-06-27T22:28:27.420Z,98746.94
2019-06-27T22:31:01.520Z,98735.91
2019-06-27T22:33:37.019Z,98738.46
2019-06-27T22:36:11.119Z,98735.53
2019-06-27T22:39:02.563Z,98738.28
2019-06-27T22:41:53.558Z,98734.06
2019-06-27T22:44:46.912Z,98733.43
2019-06-27T22:47:38.432Z,98726.42
2019-06-27T22:50:31.081Z,98729.22
2019-06-27T22:53:08.787Z,98727.94
2019-06-27T22:55:45.477Z,98717.25
2019-06-27T22:58:18.905Z,98710.58
2019-06-27T23:00:54.832Z,98712.21
2019-06-27T23:03:28.585Z,98719.13
2019-06-27T23:06:01.844Z,98717.31
2019-06-27T23:08:35.699Z,98714.38
2019-06-27T23:11:09.804Z,98718.49
2019-06-27T23:13:43.997Z,98710.59
2019-06-27T23:16:19.565Z,98698.36
2019-06-27T23:18:53.640Z,98707.33
2019-06-27T23:21:27.374Z,98707.13
2019-06-27T23:24:00.525Z,98703.00
2019-06-27T23:26:33.711Z,98697.43
2019-06-27T23:29:07.352Z,98695.06
2019-06-27T23:31:41.294Z,98694.23
2019-06-27T23:34:14.524Z,98695.77
2019-06-27T23:36:48.236Z,98694.86
2019-06-27T23:39:21.799Z,98698.98
2019-06-27T23:41:55.536Z,98700.08
2019-06-27T23:44:29.212Z,98692.78
2019-06-27T23:47:03.152Z,98687.20
2019-06-27T23:49:36.238Z,98689.30
2019-06-27T23:52:10.294Z,98687.57
2019-06-27T23:54:43.289Z,98680.97
2019-06-27T23:57:19.085Z,98682.36
2019-06-27T23:59:52.629Z,98674.55
